Time;durP1;ratioP1;P1;durP2;ratioP2;P2;SDS_P1;SDS_P2;PMS_P1;PMS_P2;Temp;Humidity;BMP_temperature;BMP_pressure;BME280_temperature;BME280_humidity;BME280_pressure;Samples;Min_cycle;Max_cycle;Signal;HPM_P1;HPM_P2
2022/08/18 00:01:44;;;;;;;4.82;4.32;;;;;;;-140.72;100.00;52593.78;4971941;28;20497;-69
2022/08/18 00:04:10;;;;;;;5.07;3.53;;;;;;;-140.72;100.00;52597.84;4970442;28;20062;-69
2022/08/18 00:06:35;;;;;;;5.60;4.55;;;;;;;-140.72;100.00;52614.06;4983158;28;20138;-70
2022/08/18 00:09:05;;;;;;;4.90;3.30;;;;;;;-140.72;100.00;52603.94;4968917;28;20622;-69
2022/08/18 00:11:32;;;;;;;;;;;;;;;-140.72;100.00;52589.72;4972181;28;20031;-69
2022/08/18 00:13:57;;;;;;;6.28;4.75;;;;;;;-140.72;100.00;52636.38;4965915;28;19956;-69
2022/08/18 00:16:23;;;;;;;6.10;4.55;;;;;;;-140.72;100.00;52610.00;4970511;28;20023;-68
2022/08/18 00:18:48;;;;;;;7.40;5.55;;;;;;;-140.72;100.00;52610.00;4969818;28;20037;-70
2022/08/18 00:21:14;;;;;;;6.93;5.43;;;;;;;-140.72;100.00;52620.16;4969872;28;20531;-69
2022/08/18 00:23:39;;;;;;;6.40;5.05;;;;;;;-140.72;100.00;52620.16;4971500;28;20058;-69
2022/08/18 00:26:05;;;;;;;6.20;4.97;;;;;;;-140.72;100.00;52618.13;4969540;28;20037;-70
2022/08/18 00:28:30;;;;;;;5.45;4.32;;;;;;;-140.72;100.00;52618.13;4971530;28;20039;-69
2022/08/18 00:30:55;;;;;;;6.93;5.20;;;;;;;-140.72;100.00;52614.06;4976257;28;20097;-69
2022/08/18 00:33:21;;;;;;;8.35;5.82;;;;;;;-140.72;100.00;52589.72;4969900;28;20125;-70
2022/08/18 00:35:47;;;;;;;5.95;5.00;;;;;;;-140.72;100.00;52614.06;4971635;28;20371;-70
2022/08/18 00:38:12;;;;;;;6.68;5.28;;;;;;;-140.72;100.00;52630.31;4969511;28;20133;-70
2022/08/18 00:40:47;;;;;;;7.20;6.05;;;;;;;-140.72;100.00;52612.03;4970647;28;20022;-69
2022/08/18 00:43:18;;;;;;;7.43;5.65;;;;;;;-140.72;100.00;52603.94;4968452;28;20034;-69
2022/08/18 00:45:45;;;;;;;8.25;6.45;;;;;;;-140.72;100.00;52626.25;4971127;28;20023;-70
2022/08/18 00:48:12;;;;;;;7.65;6.05;;;;;;;-140.72;100.00;52593.78;4968896;28;20062;-68
2022/08/18 00:50:43;;;;;;;7.75;6.95;;;;;;;-140.72;100.00;52597.84;4980164;28;20085;-69
2022/08/18 00:53:12;;;;;;;8.18;7.30;;;;;;;-140.72;100.00;52628.28;4966990;28;20493;-68
2022/08/18 00:55:39;;;;;;;8.95;7.63;;;;;;;-140.72;100.00;52614.06;4966618;28;20034;-68
2022/08/18 00:58:10;;;;;;;7.60;6.38;;;;;;;-140.72;100.00;52593.78;4982371;28;20027;-68
2022/08/18 01:00:36;;;;;;;8.80;7.82;;;;;;;-140.72;100.00;52658.72;4965753;28;20034;-67
2022/08/18 01:03:07;;;;;;;10.27;7.88;;;;;;;-140.72;100.00;52630.31;4966651;28;20034;-68
2022/08/18 01:05:39;;;;;;;9.20;7.13;;;;;;;-140.72;100.00;52632.34;4970266;28;20031;-68
2022/08/18 01:08:10;;;;;;;8.98;7.43;;;;;;;-140.72;100.00;52658.72;4977711;28;20069;-68
2022/08/18 01:10:38;;;;;;;7.05;6.35;;;;;;;-140.72;100.00;52630.31;4970140;28;20035;-68
2022/08/18 01:13:03;;;;;;;10.27;7.88;;;;;;;-140.72;100.00;52636.38;4983772;28;20035;-69
2022/08/18 01:15:29;;;;;;;10.77;7.63;;;;;;;-140.72;100.00;52666.84;4984448;28;20034;-68
2022/08/18 01:23:34;;;;;;;9.77;7.15;;;;;;;-140.72;100.00;52650.59;4969052;28;20102;-68
2022/08/18 01:26:01;;;;;;;8.93;6.78;;;;;;;-140.72;100.00;52672.91;4984104;28;20031;-68
2022/08/18 01:28:28;;;;;;;9.00;6.30;;;;;;;-140.72;100.00;52638.41;4971903;28;20034;-68
2022/08/18 01:30:57;;;;;;;7.60;6.18;;;;;;;-140.72;100.00;52640.44;4970031;28;20058;-68
2022/08/18 01:33:35;;;;;;;8.02;6.28;;;;;;;-140.72;100.00;52656.69;4968951;28;20033;-69
2022/08/18 01:36:15;;;;;;;11.25;8.55;;;;;;;-140.72;100.00;52597.84;4977221;28;20293;-69
2022/08/18 01:38:41;;;;;;;14.95;6.63;;;;;;;-140.72;100.00;52620.16;4970580;28;20034;-67
2022/08/18 01:41:06;;;;;;;11.13;6.88;;;;;;;-140.72;100.00;52646.53;4977479;28;20027;-67
2022/08/18 01:43:33;;;;;;;8.32;6.25;;;;;;;-140.72;100.00;52652.63;4984086;28;20468;-71
2022/08/18 01:46:00;;;;;;;10.82;7.57;;;;;;;-140.72;100.00;52644.50;4969440;28;20039;-68
2022/08/18 01:48:27;;;;;;;15.07;9.15;;;;;;;-140.72;100.00;52660.75;4975095;28;20034;-67
2022/08/18 01:50:54;;;;;;;9.55;8.55;;;;;;;-140.72;100.00;52670.88;4969718;28;20356;-69
2022/08/18 01:53:19;;;;;;;9.65;8.20;;;;;;;-140.72;100.00;52648.56;4984602;28;20085;-68
2022/08/18 01:55:44;;;;;;;13.30;10.85;;;;;;;-140.72;100.00;52616.09;4970637;28;20035;-69
2022/08/18 01:58:11;;;;;;;12.98;9.32;;;;;;;-140.72;100.00;52666.84;4969699;28;20027;-69
2022/08/18 02:00:36;;;;;;;10.80;9.70;;;;;;;-140.72;100.00;52656.69;4974326;28;20027;-69
2022/08/18 02:03:07;;;;;;;12.43;8.93;;;;;;;-140.72;100.00;52658.72;4973136;28;20118;-69
2022/08/18 02:05:37;;;;;;;9.68;8.68;;;;;;;-140.72;100.00;52642.47;4977480;28;20444;-68
2022/08/18 02:08:03;;;;;;;;;;;;;;;-140.72;100.00;52644.50;4971470;28;20034;-68
2022/08/18 02:10:28;;;;;;;12.25;8.65;;;;;;;-140.72;100.00;52652.63;4972146;28;20371;-68
2022/08/18 02:12:53;;;;;;;11.40;9.88;;;;;;;-140.72;100.00;52589.72;4971516;28;20126;-67
2022/08/18 02:15:19;;;;;;;10.35;9.20;;;;;;;-140.72;100.00;52654.66;4971769;28;20027;-69
2022/08/18 02:17:45;;;;;;;9.20;8.20;;;;;;;-140.72;100.00;52630.31;4971002;28;20392;-68
2022/08/18 02:20:14;;;;;;;10.85;9.20;;;;;;;-140.72;100.00;52642.47;4971128;28;20476;-68
2022/08/18 02:22:40;;;;;;;10.70;9.05;;;;;;;-140.72;100.00;52640.44;4972508;28;20368;-68
2022/08/18 02:25:06;;;;;;;13.48;10.95;;;;;;;-140.72;100.00;52660.75;4974064;28;20034;-68
2022/08/18 02:27:31;;;;;;;10.38;9.00;;;;;;;-140.72;100.00;52628.28;4987721;28;20116;-69
2022/08/18 02:29:59;;;;;;;9.35;8.45;;;;;;;-140.72;100.00;52640.44;4970862;28;20077;-68
2022/08/18 02:32:24;;;;;;;12.55;9.43;;;;;;;-140.72;100.00;52642.47;4971391;28;20039;-68
2022/08/18 02:34:49;;;;;;;11.38;9.38;;;;;;;-140.72;100.00;52644.50;4967945;28;20047;-68
2022/08/18 02:37:14;;;;;;;11.30;8.35;;;;;;;-140.72;100.00;52650.59;4971838;28;20031;-67
2022/08/18 02:39:40;;;;;;;9.25;8.25;;;;;;;-140.72;100.00;52642.47;4976415;28;20077;-69
2022/08/18 02:42:06;;;;;;;16.77;10.48;;;;;;;-140.72;100.00;52634.38;4972694;28;20026;-68
2022/08/18 02:44:33;;;;;;;9.32;7.65;;;;;;;-140.72;100.00;52632.34;4972910;28;20455;-68
2022/08/18 02:46:59;;;;;;;12.73;8.90;;;;;;;-140.72;100.00;52658.72;4971524;28;20129;-69
2022/08/18 02:49:24;;;;;;;13.02;8.38;;;;;;;-140.72;100.00;52646.53;4983420;28;20485;-68
2022/08/18 02:51:53;;;;;;;8.80;7.38;;;;;;;-140.72;100.00;52683.06;4973463;28;20031;-68
2022/08/18 02:54:21;;;;;;;10.40;7.25;;;;;;;-140.72;100.00;52662.78;4987281;28;20153;-68
2022/08/18 02:56:49;;;;;;;11.02;8.43;;;;;;;-140.72;100.00;52685.09;4985931;28;20030;-68
2022/08/18 02:59:18;;;;;;;10.05;7.82;;;;;;;-140.72;100.00;52656.69;4965616;28;20113;-67
2022/08/18 03:01:46;;;;;;;8.98;7.70;;;;;;;-140.72;100.00;52662.78;4985489;28;20424;-68
2022/08/18 03:04:16;;;;;;;9.70;7.15;;;;;;;-140.72;100.00;52685.09;4970233;28;20023;-68
2022/08/18 03:06:42;;;;;;;9.95;8.52;;;;;;;-140.72;100.00;52689.16;4972427;28;20050;-68
2022/08/18 03:09:09;;;;;;;9.10;8.13;;;;;;;-140.72;100.00;52662.78;4980268;28;20037;-68
2022/08/18 03:11:36;;;;;;;9.90;8.77;;;;;;;-140.72;100.00;52699.31;4971793;28;20030;-68
2022/08/18 03:14:04;;;;;;;10.35;9.20;;;;;;;-140.72;100.00;52648.56;4971273;28;20031;-68
2022/08/18 03:16:31;;;;;;;12.70;9.15;;;;;;;-140.72;100.00;52666.84;4970203;28;20058;-68
2022/08/18 03:18:58;;;;;;;12.25;8.50;;;;;;;-140.72;100.00;52687.13;4972598;28;20031;-69
2022/08/18 03:21:26;;;;;;;12.30;8.98;;;;;;;-140.72;100.00;52674.94;4971410;28;20062;-68
2022/08/18 03:23:53;;;;;;;9.90;8.52;;;;;;;-140.72;100.00;52687.13;4970755;28;20037;-68
2022/08/18 03:26:20;;;;;;;11.07;8.27;;;;;;;-140.72;100.00;52634.38;4987156;28;20027;-68
2022/08/18 03:28:47;;;;;;;12.48;10.05;;;;;;;-140.72;100.00;52658.72;4971497;28;20546;-68
2022/08/18 03:31:14;;;;;;;8.68;7.22;;;;;;;-140.72;100.00;52664.81;4972009;28;20037;-69
2022/08/18 03:33:41;;;;;;;9.68;7.93;;;;;;;-140.72;100.00;52660.75;4971663;28;20038;-69
2022/08/18 03:36:12;;;;;;;9.48;7.30;;;;;;;-140.72;100.00;52683.06;4968616;28;20105;-69
2022/08/18 03:38:40;;;;;;;8.18;6.72;;;;;;;-140.72;100.00;52642.47;4970958;28;20038;-68
2022/08/18 03:41:11;;;;;;;8.75;7.10;;;;;;;-140.72;100.00;52650.59;4987899;28;20129;-67
2022/08/18 03:43:37;;;;;;;10.85;7.45;;;;;;;-140.72;100.00;52664.81;4966439;28;20467;-68
2022/08/18 03:46:05;;;;;;;8.82;7.57;;;;;;;-140.72;100.00;52705.38;4987453;28;20041;-67
2022/08/18 03:48:32;;;;;;;10.63;8.10;;;;;;;-140.72;100.00;52640.44;4971026;28;20047;-68
2022/08/18 03:51:08;;;;;;;8.93;8.07;;;;;;;-140.72;100.00;52664.81;4971941;28;20609;-68
2022/08/18 03:53:35;;;;;;;11.63;9.68;;;;;;;-140.72;100.00;52672.91;4972731;28;20062;-68
2022/08/18 03:56:06;;;;;;;10.30;8.50;;;;;;;-140.72;100.00;52654.66;4971911;28;20205;-68
2022/08/18 03:58:31;;;;;;;9.98;8.05;;;;;;;-140.72;100.00;52670.88;4968051;28;20114;-67
2022/08/18 04:00:57;;;;;;;8.27;7.10;;;;;;;-140.72;100.00;52660.75;4972295;28;20114;-68
2022/08/18 04:03:22;;;;;;;8.13;6.05;;;;;;;-140.72;100.00;52666.84;4972372;28;20041;-68
2022/08/18 04:05:47;;;;;;;8.45;6.88;;;;;;;-140.72;100.00;52679.00;4985565;28;20023;-68
2022/08/18 04:08:13;;;;;;;9.10;6.63;;;;;;;-140.72;100.00;52642.47;4971757;28;20062;-68
2022/08/18 04:10:38;;;;;;;9.23;6.45;;;;;;;-140.72;100.00;52660.75;4969539;28;20043;-68
2022/08/18 04:13:04;;;;;;;8.25;6.80;;;;;;;-140.72;100.00;52664.81;4970269;28;20027;-68
2022/08/18 04:15:30;;;;;;;9.55;6.50;;;;;;;-140.72;100.00;52666.84;4987107;28;20035;-68
2022/08/18 04:18:03;;;;;;;8.45;7.57;;;;;;;-140.72;100.00;52660.75;4970253;28;20039;-69
2022/08/18 04:20:29;;;;;;;9.35;7.25;;;;;;;-140.72;100.00;52652.63;4985433;28;20066;-68
2022/08/18 04:22:54;;;;;;;8.32;6.57;;;;;;;-140.72;100.00;52654.66;4972142;28;20066;-68
2022/08/18 04:25:20;;;;;;;7.88;6.32;;;;;;;-140.72;100.00;52662.78;4970999;28;20535;-68
2022/08/18 04:27:46;;;;;;;7.10;5.72;;;;;;;-140.72;100.00;52646.53;4970446;28;20031;-68
2022/08/18 04:30:11;;;;;;;6.68;4.97;;;;;;;-140.72;100.00;52681.03;4970979;28;20464;-69
2022/08/18 04:32:38;;;;;;;8.20;5.72;;;;;;;-140.72;100.00;52642.47;4982354;28;20030;-68
2022/08/18 04:35:04;;;;;;;11.05;6.40;;;;;;;-140.72;100.00;52664.81;4970775;28;20039;-73
2022/08/18 04:37:31;;;;;;;7.10;5.97;;;;;;;-140.72;100.00;52648.56;4971089;28;20452;-73
2022/08/18 04:39:58;;;;;;;5.93;5.10;;;;;;;-140.72;100.00;52656.69;4970003;28;20034;-73
2022/08/18 04:42:24;;;;;;;7.53;5.85;;;;;;;-140.72;100.00;52709.44;4964544;28;20111;-73
2022/08/18 04:44:50;;;;;;;7.35;5.65;;;;;;;-140.72;100.00;52638.41;4970195;28;20047;-73
2022/08/18 04:47:16;;;;;;;6.50;5.40;;;;;;;-140.72;100.00;52618.13;4966858;28;20097;-73
2022/08/18 04:49:43;;;;;;;6.72;5.22;;;;;;;-140.72;100.00;52689.16;4984242;28;20051;-74
2022/08/18 04:54:53;;;;;;;7.28;5.95;;;;;;;-140.72;100.00;52644.50;4970654;28;20049;-73
2022/08/18 04:57:20;;;;;;;6.15;4.22;;;;;;;-140.72;100.00;52640.44;4983306;28;20400;-73
2022/08/18 04:59:48;;;;;;;7.18;5.82;;;;;;;-140.72;100.00;52654.66;4975649;28;20988;-73
2022/08/18 05:02:15;;;;;;;8.52;5.90;;;;;;;-140.72;100.00;52656.69;4968726;28;20114;-73
2022/08/18 05:04:45;;;;;;;10.80;5.95;;;;;;;-140.72;100.00;52654.66;4970918;28;20360;-73
2022/08/18 05:07:12;;;;;;;6.93;4.60;;;;;;;-140.72;100.00;52658.72;4967987;28;20173;-74
2022/08/18 05:09:38;;;;;;;6.65;5.25;;;;;;;-140.72;100.00;52658.72;4984906;28;20026;-74
2022/08/18 05:12:05;;;;;;;7.40;5.80;;;;;;;-140.72;100.00;52685.09;4977975;28;20031;-74
2022/08/18 05:14:32;;;;;;;5.10;4.53;;;;;;;-140.72;100.00;52666.84;4965618;28;20054;-73
2022/08/18 05:17:02;;;;;;;5.53;4.82;;;;;;;-140.72;100.00;52646.53;4974746;28;20031;-70
2022/08/18 05:19:29;;;;;;;7.40;5.85;;;;;;;-140.72;100.00;52666.84;4970735;28;20061;-71
2022/08/18 05:21:56;;;;;;;7.13;6.03;;;;;;;-140.72;100.00;52658.72;4967851;28;20034;-71
2022/08/18 05:24:24;;;;;;;6.88;5.60;;;;;;;-140.72;100.00;52660.75;4968712;28;20454;-70
2022/08/18 05:26:51;;;;;;;5.53;4.85;;;;;;;-140.72;100.00;52614.06;4970728;28;20027;-71
2022/08/18 05:29:17;;;;;;;4.80;4.30;;;;;;;-140.72;100.00;52622.19;4982981;28;20436;-70
2022/08/18 05:31:42;;;;;;;9.10;6.25;;;;;;;-140.72;100.00;52640.44;4985780;28;20031;-71
2022/08/18 05:34:08;;;;;;;5.32;4.40;;;;;;;-140.72;100.00;52652.63;4968052;28;20053;-70
2022/08/18 05:36:45;;;;;;;5.32;4.30;;;;;;;-140.72;100.00;52605.94;4970597;28;20415;-70
2022/08/18 05:39:16;;;;;;;6.57;5.00;;;;;;;-140.72;100.00;52638.41;4970367;28;20162;-71
2022/08/18 05:41:59;;;;;;;7.63;5.30;;;;;;;-140.72;100.00;52670.88;4981414;28;20028;-70
2022/08/18 05:44:32;;;;;;;9.70;5.82;;;;;;;-140.72;100.00;52648.56;4980583;28;20515;-69
2022/08/18 05:47:05;;;;;;;5.75;4.90;;;;;;;-140.72;100.00;52616.09;4963416;28;20057;-71
2022/08/18 05:49:32;;;;;;;8.35;5.70;;;;;;;-140.72;100.00;52628.28;4983256;28;20030;-70
2022/08/18 05:52:02;;;;;;;7.35;5.45;;;;;;;-140.72;100.00;52640.44;4983760;28;20031;-71
2022/08/18 05:57:26;;;;;;;6.15;4.20;;;;;;;-140.72;100.00;52557.25;4961034;28;20065;-70
2022/08/18 05:59:53;;;;;;;8.13;4.88;;;;;;;-140.72;100.00;52618.13;4968953;28;20388;-70
2022/08/18 06:02:37;;;;;;;6.70;6.00;;;;;;;-140.72;100.00;52618.13;4983239;28;20271;-70
2022/08/18 06:05:10;;;;;;;6.72;5.72;;;;;;;-140.72;100.00;52636.38;4970441;28;20035;-70
2022/08/18 06:07:40;;;;;;;7.18;5.85;;;;;;;-140.72;100.00;52605.94;4971027;28;20023;-70
2022/08/18 06:10:06;;;;;;;7.32;4.72;;;;;;;-140.72;100.00;52612.03;4968973;28;20039;-70
2022/08/18 06:12:40;;;;;;;6.57;4.97;;;;;;;-140.72;100.00;52553.19;4980612;28;20035;-69
2022/08/18 06:15:14;;;;;;;8.20;6.25;;;;;;;-140.72;100.00;52581.59;4971834;28;20085;-69
2022/08/18 06:18:04;;;;;;;7.80;5.28;;;;;;;-140.72;100.00;52573.50;4967969;28;20030;-70
2022/08/18 06:20:44;;;;;;;6.97;4.90;;;;;;;-140.72;100.00;52575.50;4970699;28;20062;-69
2022/08/18 06:23:31;;;;;;;5.63;4.63;;;;;;;-140.72;100.00;52577.53;4956790;28;20043;-69
2022/08/18 06:26:25;;;;;;;5.63;4.72;;;;;;;-140.72;100.00;52593.78;4967236;28;20027;-70
2022/08/18 06:29:06;;;;;;;6.20;5.50;;;;;;;-140.72;100.00;52534.94;4963459;28;20504;-70
2022/08/18 06:31:52;;;;;;;6.35;5.45;;;;;;;-140.72;100.00;52614.06;4969893;28;20034;-69
2022/08/18 06:34:42;;;;;;;8.50;4.55;;;;;;;-140.72;100.00;52603.94;4965787;28;20051;-69
2022/08/18 06:40:34;;;;;;;8.35;4.47;;;;;;;-140.72;100.00;52553.19;4891158;29;20043;-70
2022/08/18 06:42:59;;;;;;;6.75;4.80;;;;;;;-140.72;100.00;52563.34;4969391;28;20475;-70
2022/08/18 06:45:36;;;;;;;5.03;4.05;;;;;;;-140.72;100.00;52569.44;4972865;28;20030;-71
2022/08/18 06:48:19;;;;;;;6.38;4.68;;;;;;;-140.72;100.00;52587.69;4973312;28;20035;-70
2022/08/18 06:50:52;;;;;;;5.07;4.45;;;;;;;-140.72;100.00;52573.50;4979002;28;20126;-70
2022/08/18 06:53:18;;;;;;;6.65;5.18;;;;;;;-140.72;100.00;52549.13;4971440;28;20031;-71
2022/08/18 06:55:47;;;;;;;8.82;5.65;;;;;;;-140.72;100.00;52555.22;4974037;28;20565;-70
2022/08/18 06:58:16;;;;;;;5.97;4.47;;;;;;;-140.72;100.00;52539.00;4988848;28;20522;-72
2022/08/18 07:00:53;;;;;;;5.50;4.50;;;;;;;-140.72;100.00;52547.09;4972154;28;20038;-72
2022/08/18 07:03:23;;;;;;;5.38;4.40;;;;;;;-140.72;100.00;52563.34;4972315;28;20023;-72
2022/08/18 07:06:17;;;;;;;7.15;5.15;;;;;;;-140.72;100.00;52545.06;4988326;28;20027;-71
2022/08/18 07:08:44;;;;;;;5.10;4.38;;;;;;;-140.72;100.00;52597.84;4973168;28;20039;-71
2022/08/18 07:11:28;;;;;;;7.57;4.20;;;;;;;-140.72;100.00;52559.28;4972399;28;20121;-71
2022/08/18 07:14:12;;;;;;;5.05;4.15;;;;;;;-140.72;100.00;52585.66;4966462;28;20027;-70
2022/08/18 07:16:38;;;;;;;5.85;4.15;;;;;;;-140.72;100.00;52581.59;4978220;28;20045;-70
2022/08/18 07:19:07;;;;;;;5.40;4.40;;;;;;;-140.72;100.00;52569.44;4983155;28;20031;-71
2022/08/18 07:21:36;;;;;;;6.20;5.20;;;;;;;-140.72;100.00;52561.31;4972588;28;20446;-70
2022/08/18 07:24:08;;;;;;;6.67;4.53;;;;;;;-140.72;100.00;52516.66;4972154;28;20030;-71
2022/08/18 07:26:56;;;;;;;8.75;4.97;;;;;;;-140.72;100.00;52490.28;4977078;28;20045;-71
2022/08/18 07:29:22;;;;;;;5.63;4.45;;;;;;;-140.72;100.00;52555.22;4960730;28;20043;-71
2022/08/18 07:31:51;;;;;;;7.50;5.30;;;;;;;-140.72;100.00;52522.75;4971558;28;20066;-70
2022/08/18 07:34:26;;;;;;;4.10;3.15;;;;;;;-140.72;100.00;52510.59;4972792;28;20043;-70
2022/08/18 07:37:03;;;;;;;5.07;3.63;;;;;;;-140.72;100.00;52504.50;4970686;28;20031;-71
2022/08/18 07:39:42;;;;;;;4.63;2.78;;;;;;;-140.72;100.00;52486.22;4968751;28;20018;-71
2022/08/18 07:42:21;;;;;;;6.88;2.85;;;;;;;-140.72;100.00;52524.78;4976845;28;20041;-71
2022/08/18 07:44:58;;;;;;;3.55;2.67;;;;;;;-140.72;100.00;52528.84;4966883;28;20098;-70
2022/08/18 07:47:34;;;;;;;4.40;2.88;;;;;;;-140.72;100.00;52508.56;4972989;28;20031;-71
2022/08/18 07:50:01;;;;;;;3.28;2.25;;;;;;;-140.72;100.00;52532.91;4967814;28;20027;-71
2022/08/18 07:52:44;;;;;;;3.28;2.45;;;;;;;-140.72;100.00;52502.47;4966560;28;20403;-71
2022/08/18 07:55:30;;;;;;;4.13;2.45;;;;;;;-140.72;100.00;52522.75;4971604;28;20121;-72
2022/08/18 07:58:19;;;;;;;4.30;2.17;;;;;;;-140.72;100.00;52532.91;4972018;28;20057;-72
2022/08/18 08:01:01;;;;;;;4.25;2.30;;;;;;;-140.72;100.00;52528.84;4964909;28;20539;-71
2022/08/18 08:03:49;;;;;;;4.75;3.28;;;;;;;-140.72;100.00;52565.38;4970397;28;20042;-71
2022/08/18 08:06:22;;;;;;;4.75;3.13;;;;;;;-140.72;100.00;52516.66;4971102;28;20487;-71
2022/08/18 08:09:00;;;;;;;4.35;2.75;;;;;;;-140.72;100.00;52539.00;4985665;28;20494;-71
2022/08/18 08:11:46;;;;;;;3.55;2.42;;;;;;;-140.72;100.00;52541.03;4972080;28;20081;-73
2022/08/18 08:14:17;;;;;;;5.40;2.85;;;;;;;-140.72;100.00;52520.72;4965357;28;20058;-72
2022/08/18 08:16:56;;;;;;;3.50;2.50;;;;;;;-140.72;100.00;52494.34;4970780;28;20548;-72
2022/08/18 08:19:43;;;;;;;2.80;1.77;;;;;;;-140.72;100.00;52512.59;4969950;28;20105;-70
2022/08/18 08:22:18;;;;;;;3.85;2.05;;;;;;;-140.72;100.00;52494.34;4972724;28;20037;-71
2022/08/18 08:25:08;;;;;;;4.13;2.28;;;;;;;-140.72;100.00;52480.16;4970048;28;20031;-71
2022/08/18 08:27:55;;;;;;;2.63;2.00;;;;;;;-140.72;100.00;52486.22;4971165;28;20031;-71
2022/08/18 08:30:24;;;;;;;2.75;1.70;;;;;;;-140.72;100.00;52467.97;4962810;28;20113;-71
2022/08/18 08:32:52;;;;;;;2.60;1.63;;;;;;;-140.72;100.00;52445.66;4971264;28;20109;-71
2022/08/18 08:35:24;;;;;;;4.28;2.00;;;;;;;-140.72;100.00;52459.84;4967675;28;20251;-70
2022/08/18 08:38:12;;;;;;;2.72;1.77;;;;;;;-140.72;100.00;52425.34;4972234;28;20022;-71
2022/08/18 08:40:52;;;;;;;2.33;1.30;;;;;;;-140.72;100.00;52421.28;4970900;28;20041;-72
2022/08/18 08:43:24;;;;;;;2.00;1.60;;;;;;;-140.72;100.00;52378.69;4977979;28;20038;-73
2022/08/18 08:46:09;;;;;;;2.53;1.55;;;;;;;-140.72;100.00;52411.16;4965991;28;20027;-71
2022/08/18 08:48:52;;;;;;;4.07;1.17;;;;;;;-140.72;100.00;52429.41;4986152;28;20045;-70
2022/08/18 08:51:28;;;;;;;1.15;0.77;;;;;;;-140.72;100.00;52374.63;4976815;28;20380;-72
2022/08/18 08:54:00;;;;;;;2.42;1.20;;;;;;;-140.72;100.00;52457.81;4969689;28;20114;-72
2022/08/18 08:56:32;;;;;;;2.55;0.95;;;;;;;-140.72;100.00;52470.00;4978485;28;20039;-72
2022/08/18 08:59:03;;;;;;;1.98;1.10;;;;;;;-140.72;100.00;52427.38;4970566;28;20369;-71
2022/08/18 09:01:40;;;;;;;0.98;0.70;;;;;;;-140.72;100.00;52394.91;4969148;28;20030;-71
2022/08/18 09:04:32;;;;;;;1.73;0.98;;;;;;;-140.72;100.00;52398.97;4979794;28;20467;-72
2022/08/18 09:07:27;;;;;;;2.13;1.20;;;;;;;-140.72;100.00;52372.59;4983836;28;20038;-70
2022/08/18 09:10:27;;;;;;;0.98;0.60;;;;;;;-140.72;100.00;52301.59;4970505;28;20062;-70
2022/08/18 09:13:07;;;;;;;1.45;0.70;;;;;;;-140.72;100.00;52271.16;4965452;28;20039;-70
2022/08/18 09:15:59;;;;;;;0.85;0.65;;;;;;;-140.72;100.00;52297.53;4969306;28;20039;-71
2022/08/18 09:18:33;;;;;;;1.48;0.77;;;;;;;-140.72;100.00;52311.72;4960651;28;20035;-72
2022/08/18 09:21:23;;;;;;;1.33;0.70;;;;;;;-140.72;100.00;52334.03;4985242;28;20039;-74
2022/08/18 09:23:56;;;;;;;1.70;0.75;;;;;;;-140.72;100.00;52362.44;4969787;28;20038;-70
2022/08/18 09:26:45;;;;;;;1.30;0.70;;;;;;;-140.72;67.68;52261.00;4985234;28;20113;-72
2022/08/18 09:29:22;;;;;;;1.20;0.55;;;;;;;-140.72;0.00;52327.97;4985285;28;20487;-68
2022/08/18 09:32:19;;;;;;;0.73;0.50;;;;;;;-140.72;0.00;52330.00;4969412;28;20026;-69
2022/08/18 09:35:09;;;;;;;1.00;0.60;;;;;;;-140.72;0.00;52358.41;4970306;28;20547;-70
2022/08/18 09:37:45;;;;;;;0.70;0.40;;;;;;;-140.72;0.00;52325.94;4985849;28;20035;-71
2022/08/18 09:43:35;;;;;;;0.35;0.22;;;;;;;-140.72;0.00;52303.59;4970469;28;20410;-72
2022/08/18 09:46:03;;;;;;;0.68;0.40;;;;;;;-140.72;0.00;52230.56;4971726;28;20058;-70
2022/08/18 09:48:31;;;;;;;0.30;0.25;;;;;;;-140.72;0.00;52192.00;4985887;28;20471;-70
2022/08/18 09:51:19;;;;;;;0.65;0.35;;;;;;;-140.72;0.00;52161.56;4968424;28;20039;-70
2022/08/18 09:53:44;;;;;;;1.23;0.30;;;;;;;-140.72;0.00;52198.09;4963081;28;20189;-69
2022/08/18 09:56:12;;;;;;;0.30;0.20;;;;;;;-140.72;0.00;52277.22;4983848;28;20129;-70
2022/08/18 09:58:52;;;;;;;0.90;0.40;;;;;;;-140.72;0.00;52283.31;4968522;28;20034;-69
2022/08/18 10:01:33;;;;;;;0.57;0.32;;;;;;;-140.72;0.00;52346.22;4967372;28;20369;-69
2022/08/18 10:04:13;;;;;;;1.48;0.60;;;;;;;-140.72;0.00;52317.81;4978674;28;20089;-70
2022/08/18 10:06:41;;;;;;;1.02;0.55;;;;;;;-140.72;0.00;52403.03;4985842;28;20050;-70
2022/08/18 10:09:22;;;;;;;1.65;0.90;;;;;;;-140.72;0.00;52342.16;4960249;28;20099;-70
2022/08/18 10:12:34;;;;;;;1.52;0.82;;;;;;;-140.72;0.00;52390.84;4967078;28;20042;-69
2022/08/18 10:15:15;;;;;;;5.07;0.90;;;;;;;-140.72;0.00;52370.56;4930688;28;20039;-71
2022/08/18 10:18:05;;;;;;;2.17;1.10;;;;;;;-140.72;0.00;52348.25;4971472;28;20456;-69
2022/08/18 10:20:52;;;;;;;1.98;1.30;;;;;;;-140.72;0.00;52295.50;4973361;28;20031;-71
2022/08/18 10:23:54;;;;;;;4.60;1.00;;;;;;;-140.72;0.00;52315.78;4974229;28;20750;-70
2022/08/18 10:26:29;;;;;;;2.55;1.27;;;;;;;-140.72;0.00;52350.28;4972189;28;20026;-70
2022/08/18 10:28:58;;;;;;;3.65;1.50;;;;;;;-140.72;0.00;52352.31;4987950;28;20054;-69
2022/08/18 10:31:25;;;;;;;2.00;1.20;;;;;;;-140.72;0.00;52323.91;4973180;28;20334;-69
2022/08/18 10:34:09;;;;;;;2.80;1.50;;;;;;;-140.72;0.00;52256.94;4983734;28;20081;-74
2022/08/18 10:36:50;;;;;;;1.85;1.17;;;;;;;-140.72;0.00;52222.44;4973534;28;20039;-71
2022/08/18 10:39:26;;;;;;;2.40;1.42;;;;;;;-140.72;0.00;52131.16;4973183;28;20030;-70
2022/08/18 10:42:02;;;;;;;1.95;1.20;;;;;;;-140.72;0.00;52102.75;4964075;28;20042;-71
2022/08/18 10:44:30;;;;;;;2.08;1.27;;;;;;;-140.72;0.00;52092.59;4978788;28;20117;-69
2022/08/18 10:46:58;;;;;;;1.10;0.75;;;;;;;-140.72;0.00;52009.41;4961110;28;20035;-70
2022/08/18 10:49:27;;;;;;;0.82;0.50;;;;;;;-140.72;0.00;51956.66;4973204;28;20027;-70
2022/08/18 10:52:11;;;;;;;1.83;0.75;;;;;;;-140.72;0.00;51944.47;4971483;28;20037;-68
2022/08/18 10:54:55;;;;;;;2.67;0.77;;;;;;;-140.72;0.00;51883.63;4988913;28;20042;-69
2022/08/18 10:57:39;;;;;;;0.95;0.50;;;;;;;-140.72;0.00;51865.34;4964543;28;20479;-69
2022/08/18 11:00:18;;;;;;;0.88;0.45;;;;;;;-140.72;0.00;51843.03;4971870;28;20031;-69
2022/08/18 11:03:09;;;;;;;1.40;0.40;;;;;;;-140.72;0.00;51770.00;4973433;28;20033;-70
2022/08/18 11:05:35;;;;;;;0.90;0.60;;;;;;;-140.72;0.00;51774.06;4965486;28;20101;-70
2022/08/18 11:08:04;;;;;;;1.95;0.60;;;;;;;-140.72;0.00;51802.47;4984587;28;20039;-69
2022/08/18 11:10:38;;;;;;;0.90;0.40;;;;;;;-140.72;0.00;51767.97;4986609;28;20023;-72
2022/08/18 11:13:23;;;;;;;0.90;0.50;;;;;;;-140.72;0.00;51843.03;4987143;28;20031;-70
2022/08/18 11:15:54;;;;;;;1.52;0.50;;;;;;;-140.72;0.00;51812.59;4971275;28;20035;-70
2022/08/18 11:18:42;;;;;;;2.38;0.70;;;;;;;-140.72;0.00;51855.22;4972044;28;20208;-72
2022/08/18 11:21:26;;;;;;;;;;;;;;;-140.72;0.00;51889.69;4971173;28;20391;-70
2022/08/18 11:24:07;;;;;;;0.95;0.60;;;;;;;-140.72;0.00;52086.50;4971739;28;19957;-71
2022/08/18 11:26:35;;;;;;;1.15;0.55;;;;;;;-140.72;0.00;52131.16;4973062;28;20479;-68
2022/08/18 11:29:19;;;;;;;1.88;0.68;;;;;;;-140.72;0.00;52054.03;4985755;28;20022;-70
2022/08/18 11:31:45;;;;;;;0.80;0.50;;;;;;;-140.72;0.00;52116.94;4971729;28;20039;-69
2022/08/18 11:34:17;;;;;;;0.80;0.35;;;;;;;-140.72;0.00;52080.41;4986645;28;20051;-69
2022/08/18 11:36:42;;;;;;;0.88;0.47;;;;;;;-140.72;0.00;52074.34;4971258;28;20444;-70
2022/08/18 11:39:10;;;;;;;1.13;0.70;;;;;;;-140.72;0.00;52086.50;4972466;28;20487;-69
2022/08/18 11:41:37;;;;;;;1.08;0.60;;;;;;;-140.72;0.00;51952.59;4971409;28;20038;-69
2022/08/18 11:44:06;;;;;;;1.75;0.57;;;;;;;-140.72;0.00;51914.03;4972486;28;20039;-69
2022/08/18 11:46:37;;;;;;;;;;;;;;;-140.72;0.00;51834.91;4973586;28;20383;-69
2022/08/18 11:49:28;;;;;;;1.35;0.55;;;;;;;-140.72;0.00;51753.78;4970279;28;20016;-70
2022/08/18 11:52:01;;;;;;;1.80;0.73;;;;;;;-140.72;0.00;51891.72;4963267;28;20026;-71
2022/08/18 11:54:38;;;;;;;0.80;0.40;;;;;;;-140.72;0.00;51719.28;4972060;28;20472;-69